sensor_id;sensor_type;location;lat;lon;timestamp;P1;durP1;ratioP1;P2;durP2;ratioP2
82637;SDS011;72318;36.628;-121.932;2024-03-02T00:01:11;1.20;;;0.10;;
82637;SDS011;72318;36.628;-121.932;2024-03-02T00:06:11;1.52;;;0.10;;
82637;SDS011;72318;36.628;-121.932;2024-03-02T00:11:12;1.08;;;0.13;;
82637;SDS011;72318;36.628;-121.932;2024-03-02T00:16:13;1.10;;;0.20;;
82637;SDS011;72318;36.628;-121.932;2024-03-02T00:21:14;4.93;;;0.52;;
82637;SDS011;72318;36.628;-121.932;2024-03-02T00:26:15;1.77;;;0.00;;
82637;SDS011;72318;36.628;-121.932;2024-03-02T00:31:16;6.50;;;0.95;;
82637;SDS011;72318;36.628;-121.932;2024-03-02T00:36:24;0.22;;;0.03;;
82637;SDS011;72318;36.628;-121.932;2024-03-02T00:41:30;2.92;;;0.22;;
82637;SDS011;72318;36.628;-121.932;2024-03-02T00:51:35;4.95;;;0.47;;
82637;SDS011;72318;36.628;-121.932;2024-03-02T00:56:36;0.75;;;0.05;;
82637;SDS011;72318;36.628;-121.932;2024-03-02T01:01:36;0.10;;;0.00;;
82637;SDS011;72318;36.628;-121.932;2024-03-02T01:06:37;1.38;;;0.00;;
82637;SDS011;72318;36.628;-121.932;2024-03-02T01:11:38;7.90;;;0.45;;
82637;SDS011;72318;36.628;-121.932;2024-03-02T01:16:39;3.72;;;0.10;;
82637;SDS011;72318;36.628;-121.932;2024-03-02T01:21:40;1.90;;;0.20;;
82637;SDS011;72318;36.628;-121.932;2024-03-02T01:26:41;1.75;;;0.30;;
82637;SDS011;72318;36.628;-121.932;2024-03-02T01:31:41;3.20;;;0.00;;
82637;SDS011;72318;36.628;-121.932;2024-03-02T01:36:42;2.75;;;0.20;;
82637;SDS011;72318;36.628;-121.932;2024-03-02T01:41:43;2.38;;;0.00;;
82637;SDS011;72318;36.628;-121.932;2024-03-02T01:46:44;5.78;;;0.28;;
82637;SDS011;72318;36.628;-121.932;2024-03-02T01:51:45;4.90;;;0.10;;
82637;SDS011;72318;36.628;-121.932;2024-03-02T01:56:45;1.27;;;0.00;;
82637;SDS011;72318;36.628;-121.932;2024-03-02T02:01:46;4.88;;;0.22;;
82637;SDS011;72318;36.628;-121.932;2024-03-02T02:06:47;0.70;;;0.20;;
82637;SDS011;72318;36.628;-121.932;2024-03-02T02:11:48;5.20;;;0.10;;
82637;SDS011;72318;36.628;-121.932;2024-03-02T02:16:50;1.85;;;0.10;;
82637;SDS011;72318;36.628;-121.932;2024-03-02T02:21:51;3.17;;;0.10;;
82637;SDS011;72318;36.628;-121.932;2024-03-02T02:26:52;2.80;;;0.10;;
82637;SDS011;72318;36.628;-121.932;2024-03-02T02:31:52;1.33;;;0.20;;
82637;SDS011;72318;36.628;-121.932;2024-03-02T02:36:53;3.67;;;0.10;;
82637;SDS011;72318;36.628;-121.932;2024-03-02T02:41:54;4.43;;;0.65;;
82637;SDS011;72318;36.628;-121.932;2024-03-02T02:46:55;1.25;;;0.00;;
82637;SDS011;72318;36.628;-121.932;2024-03-02T02:51:56;2.15;;;0.20;;
82637;SDS011;72318;36.628;-121.932;2024-03-02T02:56:57;0.52;;;0.00;;
82637;SDS011;72318;36.628;-121.932;2024-03-02T03:01:58;6.70;;;0.35;;
82637;SDS011;72318;36.628;-121.932;2024-03-02T03:06:58;4.97;;;0.35;;
82637;SDS011;72318;36.628;-121.932;2024-03-02T03:11:59;4.93;;;0.10;;
82637;SDS011;72318;36.628;-121.932;2024-03-02T03:17:00;12.48;;;1.30;;
82637;SDS011;72318;36.628;-121.932;2024-03-02T03:22:01;1.20;;;0.30;;
82637;SDS011;72318;36.628;-121.932;2024-03-02T03:27:02;5.18;;;0.43;;
82637;SDS011;72318;36.628;-121.932;2024-03-02T03:32:03;2.60;;;0.00;;
82637;SDS011;72318;36.628;-121.932;2024-03-02T03:37:04;0.45;;;0.05;;
82637;SDS011;72318;36.628;-121.932;2024-03-02T03:42:04;9.55;;;0.30;;
82637;SDS011;72318;36.628;-121.932;2024-03-02T03:47:05;1.85;;;0.20;;
82637;SDS011;72318;36.628;-121.932;2024-03-02T03:52:06;1.58;;;0.40;;
82637;SDS011;72318;36.628;-121.932;2024-03-02T03:57:07;2.80;;;0.20;;
82637;SDS011;72318;36.628;-121.932;2024-03-02T04:02:08;2.67;;;0.05;;
82637;SDS011;72318;36.628;-121.932;2024-03-02T04:07:09;0.20;;;0.10;;
82637;SDS011;72318;36.628;-121.932;2024-03-02T04:12:10;5.15;;;0.10;;
82637;SDS011;72318;36.628;-121.932;2024-03-02T04:17:11;2.92;;;0.47;;
82637;SDS011;72318;36.628;-121.932;2024-03-02T04:22:12;2.85;;;0.30;;
82637;SDS011;72318;36.628;-121.932;2024-03-02T04:27:12;2.75;;;0.35;;
82637;SDS011;72318;36.628;-121.932;2024-03-02T04:32:13;2.80;;;0.00;;
82637;SDS011;72318;36.628;-121.932;2024-03-02T04:37:14;1.15;;;0.60;;
82637;SDS011;72318;36.628;-121.932;2024-03-02T04:42:15;5.35;;;0.10;;
82637;SDS011;72318;36.628;-121.932;2024-03-02T04:47:16;7.90;;;0.10;;
82637;SDS011;72318;36.628;-121.932;2024-03-02T04:52:16;0.85;;;0.20;;
82637;SDS011;72318;36.628;-121.932;2024-03-02T04:57:17;1.00;;;0.10;;
82637;SDS011;72318;36.628;-121.932;2024-03-02T05:02:18;5.85;;;0.20;;
82637;SDS011;72318;36.628;-121.932;2024-03-02T05:07:19;5.25;;;0.13;;
82637;SDS011;72318;36.628;-121.932;2024-03-02T05:12:20;6.32;;;0.28;;
82637;SDS011;72318;36.628;-121.932;2024-03-02T05:17:21;0.75;;;0.15;;
82637;SDS011;72318;36.628;-121.932;2024-03-02T05:22:21;5.60;;;0.65;;
82637;SDS011;72318;36.628;-121.932;2024-03-02T05:33:00;4.45;;;0.45;;
82637;SDS011;72318;36.628;-121.932;2024-03-02T05:38:01;10.15;;;0.40;;
82637;SDS011;72318;36.628;-121.932;2024-03-02T05:43:02;2.65;;;0.32;;
82637;SDS011;72318;36.628;-121.932;2024-03-02T05:48:03;0.65;;;0.20;;
82637;SDS011;72318;36.628;-121.932;2024-03-02T05:53:04;4.35;;;0.50;;
82637;SDS011;72318;36.628;-121.932;2024-03-02T05:58:04;6.22;;;0.57;;
82637;SDS011;72318;36.628;-121.932;2024-03-02T06:03:05;1.25;;;0.17;;
82637;SDS011;72318;36.628;-121.932;2024-03-02T06:08:06;3.33;;;0.22;;
82637;SDS011;72318;36.628;-121.932;2024-03-02T06:13:07;4.03;;;0.35;;
82637;SDS011;72318;36.628;-121.932;2024-03-02T06:18:08;12.65;;;0.38;;
82637;SDS011;72318;36.628;-121.932;2024-03-02T06:23:09;8.85;;;0.50;;
82637;SDS011;72318;36.628;-121.932;2024-03-02T06:28:09;5.78;;;0.63;;
82637;SDS011;72318;36.628;-121.932;2024-03-02T06:33:10;9.70;;;0.68;;
82637;SDS011;72318;36.628;-121.932;2024-03-02T06:38:11;5.03;;;0.15;;
82637;SDS011;72318;36.628;-121.932;2024-03-02T06:43:12;3.35;;;0.00;;
82637;SDS011;72318;36.628;-121.932;2024-03-02T06:48:13;5.60;;;0.73;;
82637;SDS011;72318;36.628;-121.932;2024-03-02T06:53:14;1.25;;;0.10;;
82637;SDS011;72318;36.628;-121.932;2024-03-02T06:58:15;5.53;;;0.30;;
82637;SDS011;72318;36.628;-121.932;2024-03-02T07:03:16;6.72;;;0.25;;
82637;SDS011;72318;36.628;-121.932;2024-03-02T07:08:16;1.98;;;0.08;;
82637;SDS011;72318;36.628;-121.932;2024-03-02T07:13:17;2.75;;;0.45;;
82637;SDS011;72318;36.628;-121.932;2024-03-02T07:18:18;14.40;;;0.55;;
82637;SDS011;72318;36.628;-121.932;2024-03-02T07:23:19;3.72;;;0.38;;
82637;SDS011;72318;36.628;-121.932;2024-03-02T07:28:20;4.63;;;0.32;;
82637;SDS011;72318;36.628;-121.932;2024-03-02T07:33:20;1.95;;;0.17;;
82637;SDS011;72318;36.628;-121.932;2024-03-02T07:38:21;3.33;;;1.15;;
82637;SDS011;72318;36.628;-121.932;2024-03-02T07:43:23;7.38;;;0.30;;
82637;SDS011;72318;36.628;-121.932;2024-03-02T07:48:23;8.23;;;0.50;;
82637;SDS011;72318;36.628;-121.932;2024-03-02T07:53:25;10.75;;;1.40;;
82637;SDS011;72318;36.628;-121.932;2024-03-02T07:58:25;20.20;;;0.82;;
82637;SDS011;72318;36.628;-121.932;2024-03-02T08:03:26;5.47;;;0.65;;
82637;SDS011;72318;36.628;-121.932;2024-03-02T08:08:27;13.23;;;1.85;;
82637;SDS011;72318;36.628;-121.932;2024-03-02T08:13:28;29.30;;;2.53;;
82637;SDS011;72318;36.628;-121.932;2024-03-02T08:18:29;14.73;;;1.10;;
82637;SDS011;72318;36.628;-121.932;2024-03-02T08:23:30;3.17;;;0.08;;
82637;SDS011;72318;36.628;-121.932;2024-03-02T08:28:30;9.80;;;0.22;;
82637;SDS011;72318;36.628;-121.932;2024-03-02T08:33:31;3.50;;;0.13;;
82637;SDS011;72318;36.628;-121.932;2024-03-02T08:38:32;14.18;;;0.75;;
82637;SDS011;72318;36.628;-121.932;2024-03-02T08:43:33;10.40;;;1.67;;
82637;SDS011;72318;36.628;-121.932;2024-03-02T08:48:34;15.57;;;2.00;;
82637;SDS011;72318;36.628;-121.932;2024-03-02T08:53:35;11.27;;;1.20;;
82637;SDS011;72318;36.628;-121.932;2024-03-02T08:58:36;24.40;;;1.65;;
82637;SDS011;72318;36.628;-121.932;2024-03-02T09:03:37;19.40;;;1.75;;
82637;SDS011;72318;36.628;-121.932;2024-03-02T09:08:38;5.60;;;0.93;;
82637;SDS011;72318;36.628;-121.932;2024-03-02T09:13:39;14.27;;;1.35;;
82637;SDS011;72318;36.628;-121.932;2024-03-02T09:18:40;20.35;;;2.88;;
82637;SDS011;72318;36.628;-121.932;2024-03-02T09:23:40;12.57;;;1.17;;
82637;SDS011;72318;36.628;-121.932;2024-03-02T09:28:44;8.48;;;1.15;;
82637;SDS011;72318;36.628;-121.932;2024-03-02T09:33:45;16.45;;;1.73;;
82637;SDS011;72318;36.628;-121.932;2024-03-02T09:38:46;18.17;;;2.58;;
82637;SDS011;72318;36.628;-121.932;2024-03-02T09:43:47;11.23;;;2.15;;
82637;SDS011;72318;36.628;-121.932;2024-03-02T09:48:47;22.08;;;2.20;;
82637;SDS011;72318;36.628;-121.932;2024-03-02T09:53:48;14.68;;;2.97;;
82637;SDS011;72318;36.628;-121.932;2024-03-02T09:58:50;15.85;;;2.15;;
82637;SDS011;72318;36.628;-121.932;2024-03-02T10:03:53;21.33;;;2.47;;
82637;SDS011;72318;36.628;-121.932;2024-03-02T10:08:55;15.65;;;2.33;;
82637;SDS011;72318;36.628;-121.932;2024-03-02T10:14:12;8.93;;;0.47;;
82637;SDS011;72318;36.628;-121.932;2024-03-02T10:19:17;11.57;;;1.60;;
82637;SDS011;72318;36.628;-121.932;2024-03-02T10:24:20;10.20;;;1.48;;
82637;SDS011;72318;36.628;-121.932;2024-03-02T10:29:22;21.75;;;1.85;;
82637;SDS011;72318;36.628;-121.932;2024-03-02T10:34:23;10.15;;;1.20;;
82637;SDS011;72318;36.628;-121.932;2024-03-02T10:39:23;14.38;;;1.63;;
82637;SDS011;72318;36.628;-121.932;2024-03-02T10:44:24;7.10;;;1.80;;
82637;SDS011;72318;36.628;-121.932;2024-03-02T10:49:26;9.80;;;1.10;;
82637;SDS011;72318;36.628;-121.932;2024-03-02T11:00:03;9.95;;;0.65;;
82637;SDS011;72318;36.628;-121.932;2024-03-02T11:05:08;10.70;;;1.30;;
82637;SDS011;72318;36.628;-121.932;2024-03-02T11:10:11;11.40;;;1.35;;
82637;SDS011;72318;36.628;-121.932;2024-03-02T11:15:15;12.68;;;1.05;;
82637;SDS011;72318;36.628;-121.932;2024-03-02T11:20:18;29.52;;;2.22;;
82637;SDS011;72318;36.628;-121.932;2024-03-02T11:25:23;13.70;;;0.57;;
82637;SDS011;72318;36.628;-121.932;2024-03-02T11:35:34;14.98;;;1.55;;
82637;SDS011;72318;36.628;-121.932;2024-03-02T11:40:42;8.13;;;1.00;;
82637;SDS011;72318;36.628;-121.932;2024-03-02T11:45:43;8.00;;;1.45;;
82637;SDS011;72318;36.628;-121.932;2024-03-02T11:50:47;11.13;;;0.75;;
82637;SDS011;72318;36.628;-121.932;2024-03-02T11:55:50;13.52;;;0.80;;
82637;SDS011;72318;36.628;-121.932;2024-03-02T12:00:55;5.65;;;1.52;;
82637;SDS011;72318;36.628;-121.932;2024-03-02T12:05:56;16.80;;;1.30;;
82637;SDS011;72318;36.628;-121.932;2024-03-02T12:11:01;13.88;;;1.45;;
82637;SDS011;72318;36.628;-121.932;2024-03-02T12:16:02;8.57;;;1.05;;
82637;SDS011;72318;36.628;-121.932;2024-03-02T12:21:03;13.32;;;1.27;;
82637;SDS011;72318;36.628;-121.932;2024-03-02T12:26:04;9.40;;;1.17;;
82637;SDS011;72318;36.628;-121.932;2024-03-02T12:31:06;11.65;;;0.90;;
82637;SDS011;72318;36.628;-121.932;2024-03-02T12:36:12;20.50;;;1.65;;
82637;SDS011;72318;36.628;-121.932;2024-03-02T12:46:17;15.13;;;1.83;;
82637;SDS011;72318;36.628;-121.932;2024-03-02T12:51:18;21.17;;;1.30;;
82637;SDS011;72318;36.628;-121.932;2024-03-02T12:56:19;15.77;;;2.15;;
82637;SDS011;72318;36.628;-121.932;2024-03-02T13:01:19;8.07;;;1.33;;
82637;SDS011;72318;36.628;-121.932;2024-03-02T13:06:20;5.88;;;0.55;;
82637;SDS011;72318;36.628;-121.932;2024-03-02T13:11:22;15.27;;;1.70;;
82637;SDS011;72318;36.628;-121.932;2024-03-02T13:16:23;7.43;;;0.95;;
82637;SDS011;72318;36.628;-121.932;2024-03-02T13:21:24;9.00;;;1.00;;
82637;SDS011;72318;36.628;-121.932;2024-03-02T13:26:25;16.60;;;1.02;;
82637;SDS011;72318;36.628;-121.932;2024-03-02T13:31:26;14.65;;;1.15;;
82637;SDS011;72318;36.628;-121.932;2024-03-02T13:36:26;7.82;;;1.38;;
82637;SDS011;72318;36.628;-121.932;2024-03-02T13:41:27;13.70;;;1.35;;
82637;SDS011;72318;36.628;-121.932;2024-03-02T13:46:28;5.72;;;1.75;;
82637;SDS011;72318;36.628;-121.932;2024-03-02T13:51:31;3.95;;;0.25;;
82637;SDS011;72318;36.628;-121.932;2024-03-02T13:56:32;12.43;;;1.10;;
82637;SDS011;72318;36.628;-121.932;2024-03-02T14:01:33;10.00;;;0.93;;
82637;SDS011;72318;36.628;-121.932;2024-03-02T14:06:34;12.40;;;0.70;;
82637;SDS011;72318;36.628;-121.932;2024-03-02T14:11:35;5.53;;;0.95;;
82637;SDS011;72318;36.628;-121.932;2024-03-02T14:16:36;3.97;;;0.68;;
82637;SDS011;72318;36.628;-121.932;2024-03-02T14:21:37;7.63;;;0.70;;
82637;SDS011;72318;36.628;-121.932;2024-03-02T14:26:38;10.27;;;1.67;;
82637;SDS011;72318;36.628;-121.932;2024-03-02T14:31:39;15.95;;;1.50;;
82637;SDS011;72318;36.628;-121.932;2024-03-02T14:36:40;10.40;;;1.17;;
82637;SDS011;72318;36.628;-121.932;2024-03-02T14:41:41;6.22;;;0.95;;
82637;SDS011;72318;36.628;-121.932;2024-03-02T14:46:42;16.70;;;1.55;;
82637;SDS011;72318;36.628;-121.932;2024-03-02T14:51:44;6.28;;;0.30;;
82637;SDS011;72318;36.628;-121.932;2024-03-02T14:56:44;3.20;;;0.93;;
82637;SDS011;72318;36.628;-121.932;2024-03-02T15:01:45;9.98;;;0.68;;
82637;SDS011;72318;36.628;-121.932;2024-03-02T15:06:46;11.20;;;0.77;;
82637;SDS011;72318;36.628;-121.932;2024-03-02T15:11:47;3.15;;;0.60;;
82637;SDS011;72318;36.628;-121.932;2024-03-02T15:16:48;3.58;;;0.73;;
82637;SDS011;72318;36.628;-121.932;2024-03-02T15:21:49;4.70;;;0.32;;
82637;SDS011;72318;36.628;-121.932;2024-03-02T15:26:49;15.48;;;1.20;;
82637;SDS011;72318;36.628;-121.932;2024-03-02T15:31:50;8.60;;;0.93;;
82637;SDS011;72318;36.628;-121.932;2024-03-02T15:36:51;10.30;;;1.40;;
82637;SDS011;72318;36.628;-121.932;2024-03-02T15:41:52;11.85;;;1.15;;
82637;SDS011;72318;36.628;-121.932;2024-03-02T15:46:53;15.77;;;1.60;;
82637;SDS011;72318;36.628;-121.932;2024-03-02T15:51:53;6.85;;;0.30;;
82637;SDS011;72318;36.628;-121.932;2024-03-02T15:56:54;11.95;;;0.80;;
82637;SDS011;72318;36.628;-121.932;2024-03-02T16:01:55;6.60;;;0.43;;
82637;SDS011;72318;36.628;-121.932;2024-03-02T16:06:56;10.85;;;0.77;;
82637;SDS011;72318;36.628;-121.932;2024-03-02T16:11:57;4.43;;;0.35;;
82637;SDS011;72318;36.628;-121.932;2024-03-02T16:16:58;8.75;;;1.02;;
82637;SDS011;72318;36.628;-121.932;2024-03-02T16:21:59;10.77;;;1.38;;
82637;SDS011;72318;36.628;-121.932;2024-03-02T16:26:59;10.25;;;1.33;;
82637;SDS011;72318;36.628;-121.932;2024-03-02T16:32:00;9.82;;;0.90;;
82637;SDS011;72318;36.628;-121.932;2024-03-02T16:37:01;11.70;;;1.13;;
82637;SDS011;72318;36.628;-121.932;2024-03-02T16:42:02;14.18;;;0.82;;
82637;SDS011;72318;36.628;-121.932;2024-03-02T16:47:03;9.60;;;0.45;;
82637;SDS011;72318;36.628;-121.932;2024-03-02T16:52:04;7.38;;;0.38;;
82637;SDS011;72318;36.628;-121.932;2024-03-02T16:57:05;9.48;;;0.20;;
82637;SDS011;72318;36.628;-121.932;2024-03-02T17:02:06;17.25;;;0.95;;
82637;SDS011;72318;36.628;-121.932;2024-03-02T17:07:07;12.23;;;1.42;;
82637;SDS011;72318;36.628;-121.932;2024-03-02T17:12:08;8.93;;;1.38;;
82637;SDS011;72318;36.628;-121.932;2024-03-02T17:17:09;10.38;;;1.27;;
82637;SDS011;72318;36.628;-121.932;2024-03-02T17:22:10;5.95;;;0.65;;
82637;SDS011;72318;36.628;-121.932;2024-03-02T17:27:12;11.95;;;1.63;;
82637;SDS011;72318;36.628;-121.932;2024-03-02T17:32:13;12.13;;;0.60;;
82637;SDS011;72318;36.628;-121.932;2024-03-02T17:37:14;2.00;;;0.30;;
82637;SDS011;72318;36.628;-121.932;2024-03-02T17:42:15;7.15;;;0.65;;
82637;SDS011;72318;36.628;-121.932;2024-03-02T17:47:16;13.18;;;1.38;;
82637;SDS011;72318;36.628;-121.932;2024-03-02T17:52:16;9.07;;;0.75;;
82637;SDS011;72318;36.628;-121.932;2024-03-02T17:57:17;8.10;;;0.75;;
82637;SDS011;72318;36.628;-121.932;2024-03-02T18:02:18;5.45;;;0.60;;
82637;SDS011;72318;36.628;-121.932;2024-03-02T18:07:19;8.55;;;1.38;;
82637;SDS011;72318;36.628;-121.932;2024-03-02T18:12:20;3.75;;;1.00;;
82637;SDS011;72318;36.628;-121.932;2024-03-02T18:17:21;3.65;;;0.82;;
82637;SDS011;72318;36.628;-121.932;2024-03-02T18:22:22;3.70;;;0.35;;
82637;SDS011;72318;36.628;-121.932;2024-03-02T18:27:22;6.53;;;0.30;;
82637;SDS011;72318;36.628;-121.932;2024-03-02T18:32:23;5.70;;;0.60;;
82637;SDS011;72318;36.628;-121.932;2024-03-02T18:37:24;6.63;;;0.10;;
82637;SDS011;72318;36.628;-121.932;2024-03-02T18:42:25;14.23;;;1.05;;
82637;SDS011;72318;36.628;-121.932;2024-03-02T18:47:26;12.38;;;1.33;;
82637;SDS011;72318;36.628;-121.932;2024-03-02T18:52:26;8.57;;;0.55;;
82637;SDS011;72318;36.628;-121.932;2024-03-02T18:57:27;9.73;;;0.68;;
82637;SDS011;72318;36.628;-121.932;2024-03-02T19:02:28;9.23;;;0.45;;
82637;SDS011;72318;36.628;-121.932;2024-03-02T19:07:32;8.20;;;0.90;;
82637;SDS011;72318;36.628;-121.932;2024-03-02T19:12:32;9.80;;;1.30;;
82637;SDS011;72318;36.628;-121.932;2024-03-02T19:17:33;7.85;;;0.68;;
82637;SDS011;72318;36.628;-121.932;2024-03-02T19:22:34;12.13;;;0.43;;
82637;SDS011;72318;36.628;-121.932;2024-03-02T19:27:35;7.88;;;0.30;;
82637;SDS011;72318;36.628;-121.932;2024-03-02T19:32:36;7.65;;;0.20;;
82637;SDS011;72318;36.628;-121.932;2024-03-02T19:37:36;7.85;;;1.02;;
82637;SDS011;72318;36.628;-121.932;2024-03-02T19:42:37;7.30;;;0.75;;
82637;SDS011;72318;36.628;-121.932;2024-03-02T19:47:38;6.82;;;0.28;;
82637;SDS011;72318;36.628;-121.932;2024-03-02T19:52:39;2.83;;;0.08;;
82637;SDS011;72318;36.628;-121.932;2024-03-02T19:57:40;3.20;;;0.17;;
82637;SDS011;72318;36.628;-121.932;2024-03-02T20:02:41;1.27;;;0.00;;
82637;SDS011;72318;36.628;-121.932;2024-03-02T20:07:42;1.55;;;0.30;;
82637;SDS011;72318;36.628;-121.932;2024-03-02T20:12:43;3.83;;;0.10;;
82637;SDS011;72318;36.628;-121.932;2024-03-02T20:17:44;13.93;;;1.08;;
82637;SDS011;72318;36.628;-121.932;2024-03-02T20:22:45;2.75;;;0.17;;
82637;SDS011;72318;36.628;-121.932;2024-03-02T20:27:45;4.60;;;0.05;;
82637;SDS011;72318;36.628;-121.932;2024-03-02T20:32:46;3.00;;;0.68;;
82637;SDS011;72318;36.628;-121.932;2024-03-02T20:37:47;2.45;;;0.00;;
82637;SDS011;72318;36.628;-121.932;2024-03-02T20:42:48;3.70;;;0.13;;
82637;SDS011;72318;36.628;-121.932;2024-03-02T20:47:49;4.35;;;0.10;;
82637;SDS011;72318;36.628;-121.932;2024-03-02T20:52:49;1.45;;;0.00;;
82637;SDS011;72318;36.628;-121.932;2024-03-02T20:57:50;7.38;;;0.40;;
82637;SDS011;72318;36.628;-121.932;2024-03-02T21:02:51;2.40;;;0.00;;
82637;SDS011;72318;36.628;-121.932;2024-03-02T21:07:52;8.05;;;0.90;;
82637;SDS011;72318;36.628;-121.932;2024-03-02T21:12:52;2.42;;;0.20;;
82637;SDS011;72318;36.628;-121.932;2024-03-02T21:17:53;0.17;;;0.00;;
82637;SDS011;72318;36.628;-121.932;2024-03-02T21:22:54;0.55;;;0.00;;
82637;SDS011;72318;36.628;-121.932;2024-03-02T21:27:55;2.63;;;0.00;;
82637;SDS011;72318;36.628;-121.932;2024-03-02T21:32:56;1.98;;;0.00;;
82637;SDS011;72318;36.628;-121.932;2024-03-02T21:37:57;1.15;;;0.00;;
82637;SDS011;72318;36.628;-121.932;2024-03-02T21:42:58;2.38;;;0.40;;
82637;SDS011;72318;36.628;-121.932;2024-03-02T21:48:00;3.35;;;0.00;;
82637;SDS011;72318;36.628;-121.932;2024-03-02T21:53:00;3.38;;;0.20;;
82637;SDS011;72318;36.628;-121.932;2024-03-02T21:58:01;0.25;;;0.00;;
82637;SDS011;72318;36.628;-121.932;2024-03-02T22:08:11;0.93;;;0.40;;
82637;SDS011;72318;36.628;-121.932;2024-03-02T22:13:12;1.15;;;0.20;;
82637;SDS011;72318;36.628;-121.932;2024-03-02T22:18:13;1.88;;;0.73;;
82637;SDS011;72318;36.628;-121.932;2024-03-02T22:23:14;5.45;;;0.10;;
82637;SDS011;72318;36.628;-121.932;2024-03-02T22:28:15;9.55;;;0.70;;
82637;SDS011;72318;36.628;-121.932;2024-03-02T22:33:15;4.28;;;0.77;;
82637;SDS011;72318;36.628;-121.932;2024-03-02T22:38:16;8.48;;;0.28;;
82637;SDS011;72318;36.628;-121.932;2024-03-02T22:43:17;6.10;;;1.17;;
82637;SDS011;72318;36.628;-121.932;2024-03-02T22:48:18;11.00;;;1.75;;
82637;SDS011;72318;36.628;-121.932;2024-03-02T22:53:19;12.90;;;0.70;;
82637;SDS011;72318;36.628;-121.932;2024-03-02T22:58:20;11.30;;;0.98;;
82637;SDS011;72318;36.628;-121.932;2024-03-02T23:03:20;1.95;;;0.35;;
82637;SDS011;72318;36.628;-121.932;2024-03-02T23:08:21;3.80;;;0.82;;
82637;SDS011;72318;36.628;-121.932;2024-03-02T23:13:22;4.95;;;0.82;;
82637;SDS011;72318;36.628;-121.932;2024-03-02T23:18:26;4.53;;;0.20;;
82637;SDS011;72318;36.628;-121.932;2024-03-02T23:23:27;1.95;;;0.47;;
82637;SDS011;72318;36.628;-121.932;2024-03-02T23:28:28;5.45;;;0.40;;
82637;SDS011;72318;36.628;-121.932;2024-03-02T23:33:32;5.05;;;0.30;;
82637;SDS011;72318;36.628;-121.932;2024-03-02T23:38:32;0.98;;;0.00;;
82637;SDS011;72318;36.628;-121.932;2024-03-02T23:43:34;3.75;;;0.00;;
82637;SDS011;72318;36.628;-121.932;2024-03-02T23:48:36;6.47;;;0.55;;
82637;SDS011;72318;36.628;-121.932;2024-03-02T23:53:37;8.75;;;0.43;;
82637;SDS011;72318;36.628;-121.932;2024-03-02T23:58:38;5.88;;;1.40;;
